Time;durP1;ratioP1;P1;durP2;ratioP2;P2;SDS_P1;SDS_P2;PMS_P1;PMS_P2;Temp;Humidity;BMP_temperature;BMP_pressure;BME280_temperature;BME280_humidity;BME280_pressure;Samples;Min_cycle;Max_cycle;Signal;HPM_P1;HPM_P2
2021/03/20 00:01:32;;;;;;;6.28;4.92;;;;;;;12.16;50.42;99664.77;1678280;84;21178;-70
2021/03/20 00:04:00;;;;;;;6.87;5.03;;;;;;;12.15;50.40;99665.28;1682724;84;21179;-67
2021/03/20 00:06:31;;;;;;;6.50;4.28;;;;;;;12.15;50.43;99672.46;1678117;84;21202;-69
2021/03/20 00:08:58;;;;;;;6.22;4.62;;;;;;;12.14;50.42;99672.13;1679995;84;21395;-69
2021/03/20 00:11:26;;;;;;;6.15;4.87;;;;;;;12.14;50.42;99673.45;1675812;84;21194;-68
2021/03/20 00:14:32;;;;;;;6.30;5.20;;;;;;;12.17;50.45;99671.26;1831327;76;28173;-69
2021/03/20 00:17:00;;;;;;;5.50;4.53;;;;;;;12.13;50.42;99669.97;1782709;78;21126;-68
2021/03/20 00:19:28;;;;;;;6.15;5.10;;;;;;;12.14;50.40;99670.78;1797316;77;21259;-69
2021/03/20 00:21:55;;;;;;;6.15;5.05;;;;;;;12.14;50.39;99676.94;1800390;79;21146;-68
2021/03/20 00:24:22;;;;;;;5.97;5.37;;;;;;;12.13;50.41;99676.62;1785597;79;21158;-69
2021/03/20 00:26:50;;;;;;;6.00;5.00;;;;;;;12.14;50.41;99680.11;1800855;77;21180;-68
2021/03/20 00:29:17;;;;;;;6.83;5.17;;;;;;;12.12;50.41;99671.47;1784368;77;21047;-68
2021/03/20 00:31:45;;;;;;;5.78;4.58;;;;;;;12.12;50.42;99666.97;1792940;77;21188;-68
2021/03/20 00:34:12;;;;;;;5.45;4.80;;;;;;;12.11;50.42;99675.98;1791413;77;21248;-69
2021/03/20 00:36:39;;;;;;;6.17;5.40;;;;;;;12.11;50.42;99677.80;1806299;77;21134;-69
2021/03/20 00:39:07;;;;;;;5.83;5.00;;;;;;;12.11;50.42;99680.45;1797450;77;21142;-67
2021/03/20 00:41:36;;;;;;;6.15;4.95;;;;;;;12.10;50.41;99679.64;1806054;78;21149;-67
2021/03/20 00:44:05;;;;;;;5.20;4.35;;;;;;;12.11;50.41;99672.47;1784785;78;21422;-69
2021/03/20 00:46:32;;;;;;;5.42;4.78;;;;;;;12.10;50.40;99674.82;1783787;78;21198;-68
2021/03/20 00:49:00;;;;;;;7.05;4.80;;;;;;;12.11;50.41;99672.47;1787586;78;21135;-70
2021/03/20 00:51:27;;;;;;;6.22;4.87;;;;;;;12.09;50.40;99671.81;1786739;78;21153;-68
2021/03/20 00:53:55;;;;;;;6.03;5.05;;;;;;;12.10;50.37;99672.16;1789747;78;21162;-67
2021/03/20 00:56:22;;;;;;;6.92;5.10;;;;;;;12.10;50.36;99668.16;1783263;79;21352;-68
2021/03/20 00:58:49;;;;;;;6.42;4.85;;;;;;;12.09;50.40;99669.16;1791610;77;21657;-69
2021/03/20 01:01:21;;;;;;;6.92;5.53;;;;;;;12.08;50.36;99667.00;1726765;81;21158;-68
2021/03/20 01:03:51;;;;;;;5.65;5.00;;;;;;;12.08;50.36;99667.00;1751881;79;21626;-68
2021/03/20 01:06:25;;;;;;;6.50;5.37;;;;;;;12.07;50.37;99667.18;1764119;80;21146;-69
2021/03/20 01:08:53;;;;;;;6.55;4.83;;;;;;;12.08;50.36;99667.52;1756455;79;21534;-68
2021/03/20 01:11:22;;;;;;;5.87;5.20;;;;;;;12.06;50.37;99667.69;1758088;80;21181;-69
2021/03/20 01:13:49;;;;;;;6.60;5.40;;;;;;;12.05;50.39;99668.69;1749150;80;21182;-67
2021/03/20 01:16:17;;;;;;;6.97;5.55;;;;;;;12.05;50.39;99671.34;1744401;80;21174;-70
2021/03/20 01:18:45;;;;;;;7.12;5.45;;;;;;;12.04;50.39;99666.23;1745651;80;21763;-70
2021/03/20 01:21:13;;;;;;;7.22;5.90;;;;;;;12.03;50.39;99669.37;1745685;80;21389;-69
2021/03/20 01:23:41;;;;;;;6.42;5.42;;;;;;;12.04;50.38;99668.89;1749621;80;21167;-68
2021/03/20 01:26:09;;;;;;;5.75;5.05;;;;;;;12.03;50.38;99668.55;1745091;79;21228;-69
2021/03/20 01:28:39;;;;;;;7.25;5.55;;;;;;;12.02;50.38;99668.24;1743883;80;21186;-68
2021/03/20 01:31:07;;;;;;;6.90;5.37;;;;;;;12.02;50.38;99666.91;1748733;81;21158;-67
2021/03/20 01:33:35;;;;;;;5.85;5.03;;;;;;;12.02;50.40;99673.56;1747312;80;22270;-67
2021/03/20 01:36:05;;;;;;;6.92;5.50;;;;;;;12.00;50.37;99669.75;1739456;79;21154;-70
2021/03/20 01:38:32;;;;;;;7.33;5.53;;;;;;;11.99;50.37;99670.73;1738816;80;21167;-69
2021/03/20 01:41:13;;;;;;;6.00;5.10;;;;;;;11.99;50.38;99677.39;1743295;81;21170;-68
2021/03/20 01:43:40;;;;;;;6.35;5.53;;;;;;;11.98;50.37;99668.59;1748275;79;21586;-69
2021/03/20 01:46:54;;;;;;;7.17;5.55;;;;;;;11.99;50.38;99677.39;1737192;80;21256;-69
2021/03/20 01:49:44;;;;;;;6.05;5.00;;;;;;;11.97;50.37;99676.23;1744047;81;21154;-68
2021/03/20 01:52:30;;;;;;;6.78;5.17;;;;;;;11.95;50.39;99681.42;1751212;79;21147;-68
2021/03/20 01:55:12;;;;;;;6.35;5.65;;;;;;;11.92;50.45;99685.28;1738635;79;21210;-68
2021/03/20 01:57:48;;;;;;;7.53;4.97;;;;;;;11.91;50.44;99684.12;1745355;81;21203;-68
2021/03/20 02:00:35;;;;;;;6.72;5.58;;;;;;;11.91;50.44;99692.11;1737201;79;22075;-70
2021/03/20 02:03:16;;;;;;;6.55;5.03;;;;;;;11.87;50.44;99683.61;1739948;80;21142;-70
2021/03/20 02:05:44;;;;;;;5.85;5.10;;;;;;;11.87;50.46;99689.45;1738958;80;21166;-70
2021/03/20 02:08:14;;;;;;;6.22;4.97;;;;;;;11.86;50.45;99692.62;1745974;80;21622;-69
2021/03/20 02:10:43;;;;;;;6.22;5.20;;;;;;;11.86;50.49;99693.95;1741698;80;21126;-69
2021/03/20 02:13:25;;;;;;;6.08;4.92;;;;;;;11.87;50.46;99690.78;1738789;80;21377;-69
2021/03/20 02:16:00;;;;;;;6.20;5.28;;;;;;;11.87;50.45;99694.26;1742435;80;21186;-70
2021/03/20 02:18:39;;;;;;;5.80;4.35;;;;;;;11.87;50.43;99693.44;1706487;81;21632;-70
2021/03/20 02:21:46;;;;;;;5.83;4.58;;;;;;;11.86;50.44;99695.77;1728889;81;21159;-70
2021/03/20 02:24:49;;;;;;;6.72;5.03;;;;;;;11.86;50.45;99699.75;1733629;81;21631;-68
2021/03/20 02:27:56;;;;;;;6.83;5.00;;;;;;;11.83;50.44;99702.28;1798073;78;21371;-69
2021/03/20 02:30:46;;;;;;;6.65;4.75;;;;;;;11.80;50.47;99704.80;1801430;77;21181;-69
2021/03/20 02:33:32;;;;;;;6.45;4.80;;;;;;;11.79;50.51;99704.46;1804432;77;21157;-70
2021/03/20 02:36:22;;;;;;;7.42;5.37;;;;;;;11.74;50.51;99704.66;1794390;77;21181;-70
2021/03/20 02:38:56;;;;;;;5.58;4.60;;;;;;;11.76;50.51;99704.83;1800462;77;21118;-70
2021/03/20 02:41:29;;;;;;;6.83;4.65;;;;;;;11.76;50.53;99715.95;1801651;78;22264;-70
2021/03/20 02:44:27;;;;;;;6.65;4.87;;;;;;;11.80;50.54;99710.60;1802342;78;28210;-69
2021/03/20 02:47:00;;;;;;;6.72;4.78;;;;;;;11.78;50.50;99717.94;1786298;80;21212;-68
2021/03/20 02:49:47;;;;;;;5.58;4.80;;;;;;;11.77;50.51;99718.96;1782894;80;21205;-68
2021/03/20 02:52:44;;;;;;;5.58;4.37;;;;;;;11.75;50.50;99716.47;1804997;78;21175;-67
2021/03/20 02:55:27;;;;;;;5.72;4.78;;;;;;;11.76;50.50;99723.46;1795298;78;21150;-68
2021/03/20 02:58:20;;;;;;;5.87;4.67;;;;;;;11.74;50.52;99718.82;1782460;79;21578;-68
2021/03/20 03:00:54;;;;;;;6.50;4.80;;;;;;;11.74;50.52;99727.28;1764273;79;21488;-69
2021/03/20 03:03:24;;;;;;;6.58;4.00;;;;;;;11.74;50.52;99727.28;1766374;81;22151;-69
2021/03/20 03:06:35;;;;;;;5.83;4.53;;;;;;;11.74;50.52;99732.13;1797154;79;21138;-69
2021/03/20 03:09:12;;;;;;;6.00;4.58;;;;;;;11.74;50.50;99723.29;1792534;79;21594;-70
2021/03/20 03:11:52;;;;;;;5.45;4.33;;;;;;;11.73;50.52;99730.45;1761020;79;21166;-70
2021/03/20 03:14:25;;;;;;;5.45;4.45;;;;;;;11.72;50.50;99730.62;1773660;79;21214;-70
2021/03/20 03:16:57;;;;;;;4.83;3.85;;;;;;;11.72;50.52;99732.78;1783110;79;21361;-69
2021/03/20 03:19:31;;;;;;;4.97;4.03;;;;;;;11.72;50.52;99727.45;1782742;79;21098;-69
2021/03/20 03:22:00;;;;;;;4.67;3.90;;;;;;;11.72;50.49;99731.95;1793807;79;21166;-70
2021/03/20 03:24:28;;;;;;;4.92;4.35;;;;;;;11.72;50.49;99730.11;1785167;79;21614;-68
2021/03/20 03:27:04;;;;;;;4.35;3.90;;;;;;;11.73;50.49;99729.64;1786983;79;21164;-69
2021/03/20 03:29:33;;;;;;;4.55;3.87;;;;;;;11.73;50.47;99736.28;1786512;79;21362;-68
2021/03/20 03:32:15;;;;;;;5.40;4.30;;;;;;;11.74;50.43;99732.13;1780247;79;21622;-67
2021/03/20 03:35:08;;;;;;;5.65;4.10;;;;;;;11.74;50.41;99736.59;1795747;79;21123;-69
2021/03/20 03:37:48;;;;;;;6.05;3.70;;;;;;;11.74;50.41;99736.12;1788935;79;21166;-69
2021/03/20 03:40:24;;;;;;;5.53;4.17;;;;;;;11.72;50.41;99736.77;1793495;79;21158;-69
2021/03/20 03:42:51;;;;;;;4.72;4.12;;;;;;;11.71;50.42;99732.47;1779891;79;21230;-69
2021/03/20 03:45:20;;;;;;;5.22;4.28;;;;;;;11.71;50.42;99731.13;1773513;80;21155;-69
2021/03/20 03:47:48;;;;;;;5.40;3.90;;;;;;;11.73;50.40;99735.78;1775176;80;21653;-69
2021/03/20 03:50:27;;;;;;;5.22;4.15;;;;;;;11.71;50.40;99726.33;1766120;80;21171;-70
2021/03/20 03:52:54;;;;;;;5.72;4.30;;;;;;;11.72;50.41;99735.95;1776533;80;21577;-70
2021/03/20 03:55:21;;;;;;;5.72;4.37;;;;;;;11.71;50.39;99731.65;1761934;80;21258;-72
2021/03/20 03:58:17;;;;;;;4.30;3.75;;;;;;;11.72;50.40;99734.11;1767002;81;21179;-70
2021/03/20 04:00:50;;;;;;;5.28;3.85;;;;;;;11.72;50.39;99736.77;1761193;81;21179;-70
2021/03/20 04:03:48;;;;;;;5.42;4.28;;;;;;;11.70;50.40;99732.63;1741920;81;21176;-69
2021/03/20 04:06:39;;;;;;;4.20;3.75;;;;;;;11.70;50.41;99736.12;1753937;81;21533;-71
2021/03/20 04:09:35;;;;;;;4.15;3.45;;;;;;;11.69;50.41;99734.98;1760700;81;21196;-71
2021/03/20 04:12:08;;;;;;;5.03;4.30;;;;;;;11.68;50.42;99737.31;1769016;80;21106;-70
2021/03/20 04:15:01;;;;;;;5.60;3.80;;;;;;;11.66;50.45;99742.80;1785771;80;21183;-71
2021/03/20 04:18:09;;;;;;;5.12;3.90;;;;;;;11.66;50.47;99744.64;1768018;80;21123;-70
2021/03/20 04:21:12;;;;;;;5.15;3.77;;;;;;;11.65;50.49;99745.15;1745997;81;21142;-71
2021/03/20 04:23:48;;;;;;;4.37;3.65;;;;;;;11.64;50.51;99750.64;1771660;80;21549;-70
2021/03/20 04:26:31;;;;;;;6.10;4.42;;;;;;;11.60;50.55;99749.64;1759832;80;21649;-71
2021/03/20 04:29:33;;;;;;;4.65;3.85;;;;;;;11.60;50.55;99752.30;1753010;80;21646;-70
2021/03/20 04:32:09;;;;;;;5.50;3.83;;;;;;;11.60;50.56;99753.63;1774058;80;21147;-69
2021/03/20 04:34:56;;;;;;;5.85;4.08;;;;;;;11.60;50.56;99758.13;1765891;80;21178;-69
2021/03/20 04:37:27;;;;;;;5.25;4.30;;;;;;;11.59;50.58;99758.64;1784479;80;21956;-69
2021/03/20 04:39:56;;;;;;;4.72;3.98;;;;;;;11.59;50.57;99763.97;1757398;80;21167;-69
2021/03/20 04:42:29;;;;;;;6.00;3.70;;;;;;;11.60;50.56;99759.47;1763523;79;21198;-67
2021/03/20 04:44:59;;;;;;;;;;;;;;;11.60;50.56;99758.95;1753724;80;21227;-68
2021/03/20 04:47:27;;;;;;;4.60;3.45;;;;;;;11.61;50.53;99760.62;1792920;79;20268;-70
2021/03/20 04:50:06;;;;;;;4.60;3.90;;;;;;;11.55;50.61;99764.47;1783978;79;21379;-69
2021/03/20 04:52:40;;;;;;;4.87;3.83;;;;;;;11.56;50.63;99770.13;1795453;79;21160;-70
2021/03/20 04:55:10;;;;;;;5.47;4.30;;;;;;;11.58;50.62;99777.44;1738651;81;21578;-69
2021/03/20 04:58:00;;;;;;;5.22;4.30;;;;;;;11.58;50.58;99779.59;1763820;81;21167;-68
2021/03/20 05:00:45;;;;;;;4.67;4.03;;;;;;;11.60;50.56;99785.56;1749305;81;21193;-66
2021/03/20 05:03:45;;;;;;;4.85;3.80;;;;;;;11.59;50.53;99783.92;1751410;81;21425;-67
2021/03/20 05:06:15;;;;;;;5.10;4.00;;;;;;;11.56;50.51;99777.61;1736850;81;21182;-69
2021/03/20 05:08:50;;;;;;;5.92;4.12;;;;;;;11.60;50.53;99784.74;1760752;81;21165;-69
2021/03/20 05:11:41;;;;;;;6.42;4.62;;;;;;;11.60;50.50;99782.08;1766960;81;21218;-68
2021/03/20 05:14:25;;;;;;;5.60;4.35;;;;;;;11.60;50.49;99785.56;1766217;81;21182;-68
2021/03/20 05:16:58;;;;;;;4.97;3.85;;;;;;;11.61;50.47;99788.56;1743528;81;22852;-69
2021/03/20 05:19:27;;;;;;;6.50;4.87;;;;;;;11.61;50.46;99789.08;1763837;81;21179;-67
2021/03/20 05:21:55;;;;;;;6.58;4.85;;;;;;;11.62;50.45;99790.72;1761210;81;21187;-69
2021/03/20 05:24:27;;;;;;;6.03;5.30;;;;;;;11.63;50.44;99788.40;1764156;81;21170;-68
2021/03/20 05:26:55;;;;;;;6.40;4.97;;;;;;;11.65;50.41;99788.20;1749650;81;21154;-68
2021/03/20 05:29:23;;;;;;;6.53;5.12;;;;;;;11.66;50.40;99793.87;1766279;81;21391;-68
2021/03/20 05:31:51;;;;;;;5.92;4.65;;;;;;;11.66;50.38;99794.69;1762847;81;21190;-69
2021/03/20 05:34:27;;;;;;;6.33;4.53;;;;;;;11.68;50.34;99795.34;1770103;81;21151;-69
2021/03/20 05:36:54;;;;;;;5.42;4.72;;;;;;;11.70;50.30;99795.17;1752256;81;21178;-69
2021/03/20 05:39:22;;;;;;;5.70;4.50;;;;;;;11.71;50.27;99798.17;1754806;81;21158;-68
2021/03/20 05:42:27;;;;;;;6.33;4.90;;;;;;;11.71;50.24;99795.52;1732437;81;21561;-69
2021/03/20 05:45:20;;;;;;;7.08;4.62;;;;;;;11.74;50.22;99801.80;1787887;79;21155;-69
2021/03/20 05:48:05;;;;;;;6.00;4.87;;;;;;;11.74;50.18;99798.66;1788422;79;21398;-68
2021/03/20 05:50:53;;;;;;;5.30;4.45;;;;;;;11.74;50.17;99808.45;1791294;79;21096;-69
2021/03/20 05:53:43;;;;;;;5.95;4.70;;;;;;;11.74;50.18;99808.45;1768221;80;21586;-69
2021/03/20 05:56:16;;;;;;;5.15;4.20;;;;;;;11.76;50.17;99811.77;1807577;78;21194;-68
2021/03/20 05:59:16;;;;;;;6.20;4.72;;;;;;;11.76;50.15;99809.11;1803635;78;21159;-68
2021/03/20 06:02:19;;;;;;;4.70;4.17;;;;;;;11.77;50.14;99807.61;1783383;80;21163;-67
2021/03/20 06:05:31;;;;;;;5.60;4.40;;;;;;;11.78;50.12;99813.75;1769657;80;26145;-68
2021/03/20 06:08:07;;;;;;;6.45;4.85;;;;;;;11.78;50.09;99815.08;1777030;79;21163;-69
2021/03/20 06:10:53;;;;;;;5.78;4.08;;;;;;;11.77;50.13;99818.26;1765416;80;21205;-71
2021/03/20 06:13:42;;;;;;;5.67;4.47;;;;;;;11.84;50.09;99820.22;1794414;79;28195;-69
2021/03/20 06:16:28;;;;;;;6.03;4.78;;;;;;;11.83;50.04;99830.55;1816578;78;21496;-68
2021/03/20 06:19:26;;;;;;;5.75;4.55;;;;;;;11.84;50.01;99829.05;1764164;79;21485;-67
2021/03/20 06:22:11;;;;;;;5.40;3.77;;;;;;;11.87;49.97;99829.20;1789905;79;21012;-69
2021/03/20 06:25:16;;;;;;;5.28;4.15;;;;;;;11.88;49.95;99828.17;1788118;79;21159;-69
2021/03/20 06:27:48;;;;;;;6.10;4.72;;;;;;;11.89;49.93;99826.70;1746481;80;21190;-68
2021/03/20 06:30:39;;;;;;;5.10;4.05;;;;;;;11.91;49.92;99830.53;1777310;79;21162;-69
2021/03/20 06:33:32;;;;;;;5.55;4.37;;;;;;;11.93;49.89;99834.67;1780384;80;21373;-68
2021/03/20 06:36:07;;;;;;;5.30;4.50;;;;;;;11.95;49.85;99837.98;1777651;80;21488;-68
2021/03/20 06:38:48;;;;;;;6.22;4.40;;;;;;;11.96;49.81;99833.52;1779389;80;21574;-70
2021/03/20 06:41:27;;;;;;;5.37;4.20;;;;;;;12.00;49.78;99842.80;1783448;80;21127;-68
2021/03/20 06:43:59;;;;;;;5.20;4.08;;;;;;;12.03;49.76;99842.95;1765653;80;21131;-68
2021/03/20 06:46:33;;;;;;;5.87;4.12;;;;;;;12.06;49.71;99839.95;1759015;80;21351;-68
2021/03/20 06:49:04;;;;;;;5.05;4.03;;;;;;;12.09;49.68;99842.24;1777657;80;21142;-68
2021/03/20 06:51:31;;;;;;;5.80;4.62;;;;;;;12.11;49.62;99841.56;1776504;80;21179;-69
2021/03/20 06:54:01;;;;;;;5.75;4.03;;;;;;;12.14;49.59;99843.38;1734373;78;21229;-68
2021/03/20 06:56:30;;;;;;;5.53;4.35;;;;;;;12.19;49.52;99844.20;1767819;80;22213;-69
2021/03/20 06:58:58;;;;;;;5.17;4.12;;;;;;;12.22;49.48;99849.16;1776573;79;21390;-67
2021/03/20 07:01:51;;;;;;;5.17;4.03;;;;;;;12.25;49.44;99846.16;1788865;79;21131;-68
2021/03/20 07:04:54;;;;;;;5.08;3.80;;;;;;;12.30;49.37;99851.76;1779340;79;21143;-68
2021/03/20 07:07:54;;;;;;;5.20;4.03;;;;;;;12.34;49.30;99853.57;1798306;79;21623;-69
2021/03/20 07:10:43;;;;;;;4.62;3.65;;;;;;;12.34;49.27;99853.09;1796997;79;21202;-68
2021/03/20 07:13:19;;;;;;;5.20;3.95;;;;;;;12.36;49.24;99853.73;1781341;80;22057;-69
2021/03/20 07:16:11;;;;;;;4.90;3.80;;;;;;;12.38;49.20;99857.05;1731759;81;21171;-69
2021/03/20 07:18:55;;;;;;;5.33;4.30;;;;;;;12.42;49.13;99864.19;1754754;81;21166;-68
2021/03/20 07:21:35;;;;;;;4.92;3.80;;;;;;;12.45;49.09;99865.66;1734765;81;21187;-69
2021/03/20 07:24:17;;;;;;;4.72;3.95;;;;;;;12.47;49.03;99867.14;1765648;80;21170;-70
2021/03/20 07:26:59;;;;;;;5.85;4.28;;;;;;;12.51;48.99;99871.61;1779120;80;21358;-70
2021/03/20 07:29:51;;;;;;;5.20;4.28;;;;;;;12.55;48.92;99868.91;1784207;80;21151;-70
2021/03/20 07:32:30;;;;;;;5.85;4.42;;;;;;;12.58;48.87;99864.06;1769299;80;21162;-69
2021/03/20 07:35:20;;;;;;;4.92;3.98;;;;;;;12.61;48.84;99869.53;1754163;81;21125;-69
2021/03/20 07:37:48;;;;;;;4.95;4.15;;;;;;;12.65;48.77;99866.86;1737449;81;21182;-70
2021/03/20 07:40:30;;;;;;;6.15;4.58;;;;;;;12.69;48.73;99876.63;1753523;81;21390;-70
2021/03/20 07:43:17;;;;;;;5.03;4.20;;;;;;;12.73;48.69;99880.63;1766581;80;21205;-68
2021/03/20 07:45:47;;;;;;;5.45;4.30;;;;;;;12.76;48.63;99878.41;1746803;81;21215;-71
2021/03/20 07:48:28;;;;;;;4.67;3.62;;;;;;;12.78;48.59;99879.05;1768479;80;21106;-70
2021/03/20 07:51:15;;;;;;;4.75;3.85;;;;;;;12.88;48.57;99892.66;1767871;79;28356;-69
2021/03/20 07:53:48;;;;;;;4.90;4.28;;;;;;;12.86;48.48;99889.34;1724954;80;21183;-71
2021/03/20 07:56:33;;;;;;;4.28;3.62;;;;;;;12.90;48.43;99883.97;1736250;82;21163;-71
2021/03/20 07:59:26;;;;;;;4.83;3.80;;;;;;;12.93;48.39;99886.28;1735280;80;21163;-69
2021/03/20 08:01:58;;;;;;;4.22;3.67;;;;;;;12.96;48.35;99885.42;1746719;80;22622;-70
2021/03/20 08:04:57;;;;;;;4.47;3.47;;;;;;;12.99;48.31;99885.05;1743837;79;21241;-71
2021/03/20 08:07:48;;;;;;;4.20;3.50;;;;;;;13.02;48.25;99886.55;1740775;79;21154;-71
2021/03/20 08:10:35;;;;;;;4.70;3.60;;;;;;;13.04;48.23;99888.53;1742307;81;21220;-70
2021/03/20 08:13:20;;;;;;;4.45;3.72;;;;;;;13.07;48.19;99888.14;1744520;81;21211;-69
2021/03/20 08:15:53;;;;;;;4.92;3.17;;;;;;;13.09;48.15;99882.13;1742024;81;21601;-69
2021/03/20 08:18:34;;;;;;;4.22;3.55;;;;;;;13.12;48.13;99892.45;1723046;79;21587;-69
2021/03/20 08:21:22;;;;;;;4.65;3.70;;;;;;;13.16;48.01;99890.25;1742051;81;21150;-69
2021/03/20 08:24:21;;;;;;;4.40;3.42;;;;;;;13.20;47.98;99889.39;1740073;79;21187;-70
2021/03/20 08:27:13;;;;;;;3.60;3.10;;;;;;;13.24;47.95;99896.83;1739562;79;21187;-69
2021/03/20 08:30:13;;;;;;;4.28;3.58;;;;;;;13.27;47.89;99897.81;1754899;81;21175;-70
2021/03/20 08:32:52;;;;;;;3.92;3.20;;;;;;;13.32;47.94;99895.95;1739531;79;21186;-69
2021/03/20 08:35:43;;;;;;;4.87;3.60;;;;;;;13.35;47.96;99898.27;1738771;79;21189;-69
2021/03/20 08:38:46;;;;;;;3.92;3.42;;;;;;;13.40;47.92;99895.05;1745486;81;21279;-69
2021/03/20 08:41:50;;;;;;;4.45;3.17;;;;;;;13.44;47.91;99899.82;1714469;81;21574;-69
2021/03/20 08:44:43;;;;;;;3.30;2.90;;;;;;;13.48;47.93;99894.47;1751443;79;21225;-69
2021/03/20 08:47:27;;;;;;;3.90;3.40;;;;;;;13.54;47.94;99905.73;1752166;79;21190;-69
2021/03/20 08:50:24;;;;;;;4.97;3.35;;;;;;;13.59;47.94;99905.69;1740536;81;21155;-69
2021/03/20 08:53:05;;;;;;;4.80;3.42;;;;;;;13.65;48.00;99911.63;1721739;82;21476;-69
2021/03/20 08:56:03;;;;;;;3.17;2.87;;;;;;;13.70;47.97;99904.72;1732150;82;21155;-69
2021/03/20 08:58:59;;;;;;;3.33;2.70;;;;;;;13.77;47.96;99912.81;1734279;81;21118;-70
2021/03/20 09:01:40;;;;;;;3.75;2.90;;;;;;;13.83;47.91;99906.75;1724136;82;21146;-69
2021/03/20 09:04:19;;;;;;;2.80;2.50;;;;;;;13.89;47.84;99903.85;1725784;82;21122;-71
2021/03/20 09:06:53;;;;;;;3.58;2.75;;;;;;;13.96;47.83;99901.59;1718563;82;22176;-68
2021/03/20 09:09:31;;;;;;;3.27;2.98;;;;;;;14.03;47.81;99900.32;1736094;82;21666;-71
2021/03/20 09:12:19;;;;;;;3.85;3.17;;;;;;;14.10;47.73;99892.38;1721953;82;21162;-70
2021/03/20 09:14:48;;;;;;;4.00;3.10;;;;;;;14.17;47.73;99894.63;1731550;81;21146;-70
2021/03/20 09:17:37;;;;;;;3.80;2.90;;;;;;;14.24;47.68;99896.88;1734626;82;21531;-69
2021/03/20 09:20:32;;;;;;;4.30;2.95;;;;;;;14.32;47.65;99899.42;1730495;81;21814;-70
2021/03/20 09:22:59;;;;;;;3.87;3.22;;;;;;;14.40;47.67;99901.16;1730894;81;21213;-68
2021/03/20 09:25:33;;;;;;;4.08;2.90;;;;;;;14.49;47.77;99900.54;1719493;81;21170;-70
2021/03/20 09:28:16;;;;;;;3.67;2.70;;;;;;;14.59;47.68;99896.25;1731433;82;21126;-70
2021/03/20 09:30:50;;;;;;;;;;;;;;;14.68;47.70;99901.28;1730878;81;21603;-68
2021/03/20 09:33:29;;;;;;;3.15;2.45;;;;;;;14.77;47.65;99891.27;1734056;81;22064;-69
2021/03/20 09:36:01;;;;;;;3.52;2.62;;;;;;;14.80;47.79;99896.76;1732373;82;21450;-70
2021/03/20 09:38:42;;;;;;;3.15;2.83;;;;;;;14.90;47.73;99900.75;1735984;81;21142;-69
2021/03/20 09:41:21;;;;;;;3.20;2.70;;;;;;;15.02;47.59;99898.38;1718915;82;21170;-69
2021/03/20 09:44:01;;;;;;;4.25;3.58;;;;;;;15.13;47.45;99899.19;1774873;79;21197;-69
2021/03/20 09:46:46;;;;;;;2.75;2.22;;;;;;;15.25;47.52;99859.34;1776158;79;21364;-70
2021/03/20 09:49:27;;;;;;;4.25;3.10;;;;;;;15.38;47.07;99856.45;1774650;79;21203;-70
2021/03/20 09:51:59;;;;;;;4.80;3.10;;;;;;;15.52;48.00;99859.51;1773093;80;21146;-69
2021/03/20 09:54:40;;;;;;;5.72;3.55;;;;;;;15.68;49.26;99853.84;1715519;82;21198;-70
2021/03/20 09:59:46;;;;;;;14.53;9.50;;;;;;;16.05;51.11;99853.58;1776419;80;21334;-70
2021/03/20 10:02:22;;;;;;;53.90;31.62;;;;;;;16.24;51.85;99850.66;1781939;78;21158;-69
2021/03/20 10:05:03;;;;;;;176.27;99.10;;;;;;;16.41;52.56;99849.25;1772583;80;21167;-70
2021/03/20 10:07:33;;;;;;;178.15;108.57;;;;;;;16.60;53.57;99848.97;1781420;80;21192;-69
2021/03/20 10:10:16;;;;;;;97.50;60.48;;;;;;;16.80;53.44;99879.00;1785505;80;21122;-69
2021/03/20 10:12:51;;;;;;;64.85;41.23;;;;;;;17.03;51.31;99890.18;1765689;78;21170;-60
2021/03/20 10:15:31;;;;;;;62.43;37.42;;;;;;;17.26;50.33;99888.41;1773030;80;21173;-71
2021/03/20 10:18:16;;;;;;;54.77;33.08;;;;;;;17.36;50.23;99877.77;1767227;80;21137;-71
2021/03/20 10:20:56;;;;;;;51.30;29.87;;;;;;;17.63;49.95;99893.31;1758685;78;21125;-73
2021/03/20 10:23:42;;;;;;;38.25;24.60;;;;;;;17.81;49.40;99889.45;1736671;81;21136;-74
2021/03/20 10:26:21;;;;;;;39.55;24.07;;;;;;;17.98;48.58;99883.12;1715973;83;21445;-73
2021/03/20 10:28:54;;;;;;;33.05;20.25;;;;;;;18.16;47.58;99883.75;1738058;81;21149;-72
2021/03/20 10:31:22;;;;;;;37.03;23.00;;;;;;;18.31;46.38;99884.83;1735973;81;21111;-65
2021/03/20 10:33:52;;;;;;;31.48;19.60;;;;;;;18.41;45.91;99885.17;1735065;81;21186;-64
2021/03/20 10:36:33;;;;;;;27.52;18.07;;;;;;;18.54;45.59;99865.41;1736425;81;22047;-65
2021/03/20 10:39:03;;;;;;;24.60;15.23;;;;;;;18.73;44.16;99869.55;1717723;81;21408;-72
2021/03/20 10:41:36;;;;;;;23.98;16.55;;;;;;;18.83;43.76;99893.63;1738656;82;21142;-71
2021/03/20 10:44:21;;;;;;;23.73;16.10;;;;;;;18.89;44.28;99887.89;1725470;81;21182;-72
2021/03/20 10:46:58;;;;;;;23.52;15.32;;;;;;;18.91;44.12;99893.87;1737892;81;21197;-72
2021/03/20 10:49:27;;;;;;;20.45;14.35;;;;;;;18.90;44.02;99893.56;1709312;82;21237;-72
2021/03/20 10:51:56;;;;;;;25.10;15.18;;;;;;;18.88;44.02;99889.45;1737461;82;21398;-72
2021/03/20 10:54:34;;;;;;;21.42;15.03;;;;;;;18.88;43.89;99888.10;1732394;82;21206;-72
2021/03/20 10:57:14;;;;;;;21.95;14.78;;;;;;;18.90;43.47;99882.80;1732422;82;21137;-73
2021/03/20 10:59:44;;;;;;;22.70;14.35;;;;;;;19.08;42.70;99889.28;1730753;81;21146;-71
2021/03/20 11:02:36;;;;;;;19.35;13.18;;;;;;;19.12;42.36;99879.71;1728374;82;21193;-72
2021/03/20 11:05:24;;;;;;;18.00;12.47;;;;;;;19.13;42.26;99884.06;1728765;81;22346;-71
2021/03/20 11:08:00;;;;;;;19.70;12.95;;;;;;;19.07;42.12;99879.03;1720707;81;21579;-71
2021/03/20 11:10:37;;;;;;;20.20;12.43;;;;;;;18.98;41.88;99883.86;1708955;82;21206;-70
2021/03/20 11:13:09;;;;;;;16.52;11.40;;;;;;;18.88;41.71;99886.23;1713018;82;21626;-71
2021/03/20 11:15:37;;;;;;;16.80;11.00;;;;;;;18.74;41.70;99880.63;1734730;82;21598;-70
2021/03/20 11:18:09;;;;;;;19.95;11.48;;;;;;;18.66;41.66;99889.78;1723818;81;21371;-64
2021/03/20 11:20:39;;;;;;;37.90;21.87;;;;;;;18.55;41.73;99851.47;1733880;82;21170;-65
2021/03/20 11:23:06;;;;;;;31.50;19.92;;;;;;;18.53;48.46;99855.71;1730188;81;21154;-67
2021/03/20 11:25:40;;;;;;;32.28;19.95;;;;;;;18.66;50.39;99848.89;1732016;81;21187;-65
2021/03/20 11:28:15;;;;;;;33.28;20.48;;;;;;;18.88;50.76;99853.11;1730513;82;21229;-63
2021/03/20 11:30:48;;;;;;;34.88;18.92;;;;;;;19.10;50.78;99848.95;1706292;82;22477;-66
2021/03/20 11:33:25;;;;;;;30.12;18.25;;;;;;;19.32;50.71;99845.34;1733787;82;21629;-65
2021/03/20 11:35:59;;;;;;;27.82;17.25;;;;;;;19.52;50.37;99851.86;1720948;82;21194;-66
2021/03/20 11:38:27;;;;;;;36.95;17.00;;;;;;;19.68;50.10;99842.34;1700202;82;21147;-63
2021/03/20 11:41:06;;;;;;;27.60;15.85;;;;;;;19.82;50.05;99840.37;1728862;82;21147;-63
2021/03/20 11:43:41;;;;;;;26.95;16.02;;;;;;;19.95;49.73;99838.01;1729403;82;21459;-67
2021/03/20 11:46:27;;;;;;;27.95;15.70;;;;;;;20.17;49.39;99875.58;1734087;81;21178;-63
2021/03/20 11:49:00;;;;;;;28.57;14.78;;;;;;;20.41;49.01;99865.69;1732457;82;21241;-66
2021/03/20 11:51:32;;;;;;;27.90;15.38;;;;;;;20.58;48.45;99859.65;1735223;81;21661;-65
2021/03/20 11:54:06;;;;;;;24.40;14.63;;;;;;;20.80;47.78;99872.09;1732342;82;21202;-65
2021/03/20 11:56:35;;;;;;;23.02;13.75;;;;;;;20.90;47.20;99866.13;1725636;81;21377;-66
2021/03/20 11:59:20;;;;;;;21.02;13.62;;;;;;;20.96;46.72;99868.73;1727198;81;21170;-67
2021/03/20 12:01:56;;;;;;;19.55;13.18;;;;;;;21.11;45.89;99864.73;1804876;78;22757;-63
2021/03/20 12:04:27;;;;;;;16.23;10.95;;;;;;;21.14;45.20;99861.58;1771821;78;21531;-68
2021/03/20 12:07:22;;;;;;;17.27;11.33;;;;;;;21.19;44.62;99865.76;1773435;79;21364;-68
2021/03/20 12:09:52;;;;;;;15.72;10.98;;;;;;;21.21;44.14;99864.99;1797831;78;21052;-69
2021/03/20 12:12:45;;;;;;;13.70;9.88;;;;;;;21.20;43.48;99864.15;1802844;78;21050;-69
2021/03/20 12:15:25;;;;;;;17.25;10.65;;;;;;;21.19;43.18;99858.47;1790124;79;21642;-69
2021/03/20 12:17:57;;;;;;;16.62;10.10;;;;;;;21.17;43.64;99852.48;1777795;80;21586;-68
2021/03/20 12:20:42;;;;;;;13.58;8.70;;;;;;;21.17;43.64;99844.88;1797392;79;21382;-67
2021/03/20 12:23:21;;;;;;;15.13;9.00;;;;;;;21.16;43.51;99856.22;1799982;79;21151;-67
2021/03/20 12:25:56;;;;;;;13.13;7.95;;;;;;;21.17;43.11;99853.83;1792612;79;21127;-67
2021/03/20 12:28:43;;;;;;;14.00;8.48;;;;;;;21.21;43.07;99856.89;1793604;79;21171;-68
2021/03/20 12:32:34;;;;;;;13.98;7.80;;;;;;;21.27;43.26;99850.54;1760595;78;22564;-69